Time;durP1;ratioP1;P1;durP2;ratioP2;P2;SDS_P1;SDS_P2;PMS_P1;PMS_P2;Temp;Humidity;BMP_temperature;BMP_pressure;BME280_temperature;BME280_humidity;BME280_pressure;Samples;Min_cycle;Max_cycle;Signal;HPM_P1;HPM_P2
2024/01/08 00:01:26;;;;;;;0.75;0.75;;;2.20;99.20;;;;;;5038981;28;20041;-70
2024/01/08 00:03:52;;;;;;;6.45;0.73;;;2.10;99.50;;;;;;5040747;28;20170;-71
2024/01/08 00:06:18;;;;;;;0.32;0.32;;;2.00;99.70;;;;;;5047312;28;20032;-73
2024/01/08 00:08:44;;;;;;;6.22;1.88;;;1.90;99.90;;;;;;5050255;28;20389;-70
2024/01/08 00:11:10;;;;;;;0.47;0.45;;;1.80;99.90;;;;;;5043981;28;20033;-70
2024/01/08 00:13:35;;;;;;;1.27;0.35;;;1.90;99.90;;;;;;5040519;28;21011;-70
2024/01/08 00:16:01;;;;;;;0.60;0.43;;;1.80;99.90;;;;;;5035852;28;20553;-70
2024/01/08 00:18:29;;;;;;;0.13;0.13;;;1.80;99.90;;;;;;5042989;28;20040;-71
2024/01/08 00:20:56;;;;;;;2.13;0.93;;;1.80;99.90;;;;;;5039817;28;20037;-71
2024/01/08 00:23:22;;;;;;;0.17;0.17;;;1.70;99.90;;;;;;5038552;28;20055;-71
2024/01/08 00:25:48;;;;;;;0.10;0.10;;;1.70;99.90;;;;;;5038816;28;20032;-71
2024/01/08 00:28:14;;;;;;;0.73;0.65;;;1.70;99.90;;;;;;5037120;28;20100;-70
2024/01/08 00:30:39;;;;;;;0.40;0.40;;;1.70;99.90;;;;;;5037445;28;20032;-71
2024/01/08 00:33:07;;;;;;;2.40;0.28;;;1.60;99.90;;;;;;5021490;28;20060;-70
2024/01/08 00:35:32;;;;;;;0.00;0.00;;;1.60;99.90;;;;;;5036020;28;20095;-71
2024/01/08 00:37:58;;;;;;;0.10;0.10;;;1.60;99.90;;;;;;5042064;28;20104;-71
2024/01/08 00:40:24;;;;;;;2.38;0.90;;;1.50;99.90;;;;;;5040267;28;20037;-70
2024/01/08 00:42:49;;;;;;;0.13;0.13;;;1.50;99.90;;;;;;5035912;28;20032;-71
2024/01/08 00:45:15;;;;;;;0.25;0.17;;;1.40;99.90;;;;;;5041830;28;20028;-70
2024/01/08 00:47:41;;;;;;;1.98;0.73;;;1.40;99.90;;;;;;5041000;28;20032;-70
2024/01/08 00:50:09;;;;;;;0.00;0.00;;;1.30;99.90;;;;;;5039770;28;20044;-70
2024/01/08 00:52:36;;;;;;;0.20;0.20;;;1.30;99.90;;;;;;5037395;28;20036;-72
2024/01/08 00:55:04;;;;;;;1.08;0.30;;;1.30;99.90;;;;;;5035531;28;20059;-71
2024/01/08 00:57:31;;;;;;;0.30;0.30;;;1.30;99.90;;;;;;5039775;28;20032;-71
2024/01/08 00:59:57;;;;;;;0.28;0.28;;;1.40;99.90;;;;;;5038737;28;20033;-70
2024/01/08 01:02:23;;;;;;;1.95;0.75;;;1.30;99.90;;;;;;5030156;28;20512;-70
2024/01/08 01:04:48;;;;;;;0.35;0.35;;;1.30;99.90;;;;;;5037554;28;20120;-70
2024/01/08 01:07:14;;;;;;;0.35;0.35;;;1.30;99.90;;;;;;5038977;28;20562;-72
2024/01/08 01:09:40;;;;;;;0.43;0.43;;;1.30;99.90;;;;;;5035124;28;20033;-71
2024/01/08 01:12:06;;;;;;;4.95;0.55;;;1.30;99.90;;;;;;5039620;28;20120;-70
2024/01/08 01:14:31;;;;;;;2.55;0.40;;;1.20;99.90;;;;;;5040119;28;20035;-69
2024/01/08 01:16:57;;;;;;;0.50;0.50;;;1.30;99.90;;;;;;5047702;28;20045;-71
2024/01/08 01:19:23;;;;;;;0.30;0.30;;;1.30;99.90;;;;;;5046814;28;20033;-72
2024/01/08 01:21:48;;;;;;;0.10;0.10;;;1.30;99.90;;;;;;5042462;28;20056;-70
2024/01/08 01:24:14;;;;;;;0.40;0.35;;;1.40;99.90;;;;;;5047736;28;20083;-70
2024/01/08 01:26:40;;;;;;;0.03;0.03;;;1.30;99.90;;;;;;5046430;28;20025;-71
2024/01/08 01:29:06;;;;;;;0.25;0.25;;;1.30;99.90;;;;;;5040328;28;20033;-71
2024/01/08 01:31:33;;;;;;;0.40;0.40;;;1.30;99.90;;;;;;5045494;28;20250;-70
2024/01/08 01:34:00;;;;;;;0.13;0.13;;;1.30;99.90;;;;;;5042988;28;20444;-71
2024/01/08 01:36:26;;;;;;;0.10;0.10;;;1.30;99.90;;;;;;5040701;28;20673;-69
2024/01/08 01:38:51;;;;;;;0.30;0.20;;;1.30;99.90;;;;;;5043580;28;20029;-71
2024/01/08 01:41:17;;;;;;;0.10;0.10;;;1.30;99.90;;;;;;5042429;28;20036;-71
2024/01/08 01:43:43;;;;;;;1.33;0.35;;;1.30;99.90;;;;;;5044785;28;20029;-69
2024/01/08 01:46:22;;;;;;;0.20;0.20;;;1.40;99.90;;;;;;5047653;28;20025;-71
2024/01/08 01:48:48;;;;;;;8.15;0.52;;;1.40;99.90;;;;;;5043503;28;20682;-71
2024/01/08 01:51:15;;;;;;;1.05;0.45;;;1.50;99.90;;;;;;5047033;28;20056;-72
2024/01/08 01:53:40;;;;;;;0.00;0.00;;;1.60;99.90;;;;;;5048596;28;20033;-70
2024/01/08 01:56:07;;;;;;;0.10;0.10;;;1.60;99.90;;;;;;5042927;28;20064;-69
2024/01/08 01:58:34;;;;;;;0.28;0.28;;;1.60;99.90;;;;;;5046407;28;20028;-70
2024/01/08 02:01:00;;;;;;;0.22;0.22;;;1.60;99.90;;;;;;5045385;28;20033;-70
2024/01/08 02:03:27;;;;;;;11.75;0.40;;;1.70;99.90;;;;;;5041864;28;20395;-70
2024/01/08 02:05:53;;;;;;;0.50;0.20;;;1.60;99.90;;;;;;5043582;28;20052;-70
2024/01/08 02:08:21;;;;;;;1.08;0.70;;;1.60;99.90;;;;;;5043232;28;20059;-70
2024/01/08 02:10:47;;;;;;;0.13;0.13;;;1.60;99.90;;;;;;5046557;28;20082;-70
2024/01/08 02:13:12;;;;;;;0.08;0.08;;;1.50;99.90;;;;;;5047648;28;20029;-71
2024/01/08 02:15:38;;;;;;;0.10;0.10;;;1.50;99.90;;;;;;5041284;28;20789;-71
2024/01/08 02:18:04;;;;;;;0.00;0.00;;;1.40;99.90;;;;;;5045062;28;20404;-70
2024/01/08 02:20:29;;;;;;;0.15;0.15;;;1.40;99.90;;;;;;5045091;28;20409;-70
2024/01/08 02:22:58;;;;;;;0.00;0.00;;;1.30;99.90;;;;;;5040760;28;20052;-71
2024/01/08 02:25:25;;;;;;;0.35;0.35;;;1.20;99.90;;;;;;5045949;28;20029;-71
2024/01/08 02:27:50;;;;;;;0.10;0.10;;;1.20;99.90;;;;;;5039441;28;20040;-72
2024/01/08 02:30:16;;;;;;;0.10;0.10;;;1.30;99.90;;;;;;5040408;28;20497;-70
2024/01/08 02:32:42;;;;;;;0.10;0.10;;;1.30;99.90;;;;;;5047679;28;20033;-71
2024/01/08 02:35:07;;;;;;;0.30;0.30;;;1.30;99.90;;;;;;5040421;28;20068;-71
2024/01/08 02:37:33;;;;;;;0.60;0.20;;;1.30;99.90;;;;;;5042131;28;20400;-70
2024/01/08 02:39:59;;;;;;;0.17;0.17;;;1.40;99.90;;;;;;5062558;28;20033;-70
2024/01/08 02:42:24;;;;;;;1.80;0.50;;;1.40;99.90;;;;;;5052159;28;20073;-71
2024/01/08 02:44:50;;;;;;;0.30;0.30;;;1.50;99.90;;;;;;5045510;28;20041;-71
2024/01/08 02:47:15;;;;;;;0.10;0.10;;;1.70;99.90;;;;;;5045637;28;20033;-71
2024/01/08 02:49:41;;;;;;;0.10;0.10;;;1.70;99.90;;;;;;5038133;28;20048;-71
2024/01/08 02:52:07;;;;;;;0.20;0.20;;;1.80;99.90;;;;;;5043443;28;20129;-71
2024/01/08 02:54:33;;;;;;;0.20;0.20;;;1.90;99.90;;;;;;5042541;28;20041;-70
2024/01/08 02:56:59;;;;;;;0.25;0.25;;;1.90;99.90;;;;;;5040883;28;20561;-71
2024/01/08 02:59:25;;;;;;;0.40;0.40;;;1.90;99.90;;;;;;5040154;28;20576;-71
2024/01/08 03:01:51;;;;;;;3.30;0.32;;;2.00;99.90;;;;;;5036940;28;20155;-70
2024/01/08 03:04:16;;;;;;;0.55;0.55;;;1.90;99.90;;;;;;5038922;28;20037;-71
2024/01/08 03:06:42;;;;;;;0.10;0.10;;;1.90;99.90;;;;;;5040999;28;20039;-71
2024/01/08 03:09:29;;;;;;;0.75;0.63;;;2.00;99.90;;;;;;5036766;28;20839;-71
2024/01/08 03:11:55;;;;;;;0.10;0.10;;;2.00;99.90;;;;;;5044166;28;20045;-70
2024/01/08 03:14:21;;;;;;;0.60;0.52;;;2.00;99.90;;;;;;5044875;28;20447;-70
2024/01/08 03:16:47;;;;;;;0.10;0.10;;;2.00;99.90;;;;;;5036560;28;20440;-69
2024/01/08 03:19:13;;;;;;;0.00;0.00;;;2.10;99.80;;;;;;5039640;28;20037;-70
2024/01/08 03:21:39;;;;;;;0.08;0.08;;;2.20;99.80;;;;;;5038151;28;20045;-71
2024/01/08 03:24:05;;;;;;;2.72;0.43;;;2.20;99.80;;;;;;5037723;28;20453;-70
2024/01/08 03:26:31;;;;;;;0.70;0.30;;;2.20;99.70;;;;;;5043103;28;20512;-70
2024/01/08 03:28:57;;;;;;;0.15;0.15;;;2.20;99.80;;;;;;5038194;28;20052;-70
2024/01/08 03:31:23;;;;;;;4.03;2.72;;;2.10;99.90;;;;;;5042514;28;20056;-71
2024/01/08 03:33:49;;;;;;;1.02;0.52;;;2.00;99.90;;;;;;5041720;28;20161;-71
2024/01/08 03:36:14;;;;;;;0.10;0.10;;;1.80;99.90;;;;;;5036768;28;20097;-70
2024/01/08 03:38:41;;;;;;;0.30;0.20;;;1.80;99.90;;;;;;5039018;28;20041;-69
2024/01/08 03:41:06;;;;;;;0.28;0.28;;;1.80;99.90;;;;;;5042831;28;20052;-70
2024/01/08 03:43:32;;;;;;;0.40;0.40;;;1.70;99.90;;;;;;5038590;28;20485;-70
2024/01/08 03:45:58;;;;;;;11.35;0.65;;;1.60;99.90;;;;;;5043747;28;20048;-71
2024/01/08 03:48:23;;;;;;;0.35;0.25;;;1.50;99.90;;;;;;5039650;28;20907;-71
2024/01/08 03:50:49;;;;;;;0.98;0.43;;;1.40;99.90;;;;;;5037036;28;20025;-70
2024/01/08 03:53:14;;;;;;;5.07;0.20;;;1.30;99.90;;;;;;5041680;28;20529;-70
2024/01/08 03:55:40;;;;;;;0.63;0.63;;;1.30;99.90;;;;;;5037039;28;20040;-71
2024/01/08 03:58:06;;;;;;;0.90;0.40;;;1.40;99.90;;;;;;5039058;28;20025;-71
2024/01/08 04:00:31;;;;;;;1.20;0.45;;;1.40;99.90;;;;;;5037131;28;20123;-71
2024/01/08 04:02:57;;;;;;;0.10;0.10;;;1.50;99.90;;;;;;5034721;28;20485;-71
2024/01/08 04:05:23;;;;;;;0.00;0.00;;;1.60;99.90;;;;;;5040385;28;20021;-71
2024/01/08 04:07:48;;;;;;;0.50;0.50;;;1.70;99.90;;;;;;5039395;28;20515;-70
2024/01/08 04:10:14;;;;;;;0.57;0.32;;;1.80;99.90;;;;;;5038211;28;20032;-70
2024/01/08 04:12:40;;;;;;;0.45;0.45;;;2.00;99.90;;;;;;5038892;28;20422;-72
2024/01/08 04:15:06;;;;;;;0.35;0.30;;;2.10;99.90;;;;;;5036398;28;20039;-70
2024/01/08 04:17:31;;;;;;;4.60;0.65;;;2.20;99.90;;;;;;5036029;28;20138;-70
2024/01/08 04:19:57;;;;;;;0.30;0.30;;;2.20;99.90;;;;;;5040296;28;20029;-70
2024/01/08 04:22:23;;;;;;;4.03;0.57;;;2.30;99.90;;;;;;5035564;28;20806;-70
2024/01/08 04:24:48;;;;;;;0.47;0.43;;;2.40;99.90;;;;;;5039789;28;20040;-71
2024/01/08 04:27:14;;;;;;;2.88;0.70;;;2.40;99.90;;;;;;5043842;28;20095;-71
2024/01/08 04:29:40;;;;;;;0.10;0.10;;;2.40;99.90;;;;;;5036280;28;20828;-71
2024/01/08 04:32:05;;;;;;;0.10;0.10;;;2.40;99.90;;;;;;5042395;28;20664;-71
2024/01/08 04:34:31;;;;;;;0.43;0.20;;;2.40;99.90;;;;;;5041596;28;21509;-70
2024/01/08 04:36:56;;;;;;;0.05;0.05;;;2.50;99.90;;;;;;5035799;28;20124;-70
2024/01/08 04:39:22;;;;;;;1.35;0.85;;;2.40;99.90;;;;;;5041359;28;20555;-71
2024/01/08 04:41:48;;;;;;;0.57;0.40;;;2.40;99.90;;;;;;5039566;28;20033;-71
2024/01/08 04:44:14;;;;;;;0.47;0.22;;;2.50;99.90;;;;;;5037021;28;20037;-70
2024/01/08 04:46:42;;;;;;;0.35;0.20;;;2.60;99.90;;;;;;5038985;28;20028;-71
2024/01/08 04:49:07;;;;;;;2.45;0.30;;;2.60;99.90;;;;;;5035696;28;20061;-70
2024/01/08 04:51:33;;;;;;;0.10;0.10;;;2.60;99.90;;;;;;5038102;28;21659;-71
2024/01/08 04:54:00;;;;;;;0.32;0.30;;;2.70;99.90;;;;;;5039054;28;20033;-70
2024/01/08 04:56:28;;;;;;;0.10;0.10;;;2.70;99.90;;;;;;5037708;28;20148;-71
2024/01/08 04:58:54;;;;;;;0.55;0.35;;;2.70;99.90;;;;;;5043369;28;20114;-71
2024/01/08 05:01:20;;;;;;;0.22;0.22;;;2.70;99.90;;;;;;5040548;28;20125;-72
2024/01/08 05:03:46;;;;;;;2.63;0.77;;;2.70;99.90;;;;;;5025262;28;20032;-69
2024/01/08 05:06:12;;;;;;;0.20;0.17;;;2.70;99.90;;;;;;5038986;28;20037;-70
2024/01/08 05:08:38;;;;;;;1.70;1.15;;;2.80;99.90;;;;;;5036432;28;20040;-72
2024/01/08 05:11:06;;;;;;;0.00;0.00;;;2.70;99.90;;;;;;5025220;28;20416;-70
2024/01/08 05:13:33;;;;;;;0.05;0.05;;;2.80;99.90;;;;;;5040476;28;20115;-70
2024/01/08 05:15:58;;;;;;;0.20;0.20;;;2.80;99.90;;;;;;5037682;28;20033;-70
2024/01/08 05:18:24;;;;;;;0.10;0.10;;;2.80;99.90;;;;;;5039666;28;20032;-71
2024/01/08 05:20:50;;;;;;;0.45;0.13;;;2.80;99.90;;;;;;5042593;28;20037;-71
2024/01/08 05:23:15;;;;;;;4.38;0.70;;;2.70;99.90;;;;;;5038452;28;20052;-70
2024/01/08 05:25:41;;;;;;;1.38;0.85;;;2.70;99.90;;;;;;5046865;28;20029;-69
2024/01/08 05:28:07;;;;;;;0.20;0.20;;;2.70;99.90;;;;;;5068800;28;20084;-69
2024/01/08 05:30:33;;;;;;;0.10;0.10;;;2.80;99.90;;;;;;5046962;28;20121;-70
2024/01/08 05:32:59;;;;;;;5.38;0.10;;;2.80;99.90;;;;;;5041591;28;20482;-70
2024/01/08 05:35:24;;;;;;;2.08;1.17;;;2.80;99.90;;;;;;5038821;28;20033;-70
2024/01/08 05:37:50;;;;;;;0.08;0.08;;;2.80;99.90;;;;;;5035720;28;20021;-71
2024/01/08 05:40:16;;;;;;;0.10;0.10;;;2.90;99.80;;;;;;5038252;28;20033;-69
2024/01/08 05:42:41;;;;;;;0.43;0.20;;;2.90;99.90;;;;;;5032826;28;20567;-70
2024/01/08 05:45:07;;;;;;;0.32;0.32;;;2.90;99.80;;;;;;5038616;28;20018;-70
2024/01/08 05:47:34;;;;;;;8.85;0.40;;;3.00;99.90;;;;;;5041802;28;20100;-70
2024/01/08 05:50:03;;;;;;;0.10;0.10;;;3.00;99.90;;;;;;5035877;28;20527;-70
2024/01/08 05:52:29;;;;;;;0.20;0.20;;;3.00;99.60;;;;;;5039685;28;20033;-71
2024/01/08 05:54:55;;;;;;;0.55;0.55;;;3.10;99.60;;;;;;5040031;28;20065;-69
2024/01/08 05:57:21;;;;;;;0.20;0.20;;;3.10;99.40;;;;;;5034480;28;20025;-70
2024/01/08 05:59:47;;;;;;;0.15;0.15;;;3.10;99.30;;;;;;5042087;28;20059;-69
2024/01/08 06:02:12;;;;;;;0.38;0.22;;;3.20;99.10;;;;;;5043364;28;20499;-70
2024/01/08 06:04:38;;;;;;;2.72;0.40;;;3.20;98.90;;;;;;5041242;28;20037;-70
2024/01/08 06:07:04;;;;;;;0.10;0.10;;;3.30;99.00;;;;;;5042722;28;20029;-70
2024/01/08 06:09:30;;;;;;;0.10;0.10;;;3.20;99.20;;;;;;5039670;28;20025;-69
2024/01/08 06:11:56;;;;;;;0.75;0.45;;;3.20;99.00;;;;;;5038618;28;20040;-72
2024/01/08 06:14:22;;;;;;;0.13;0.13;;;3.30;98.90;;;;;;5042529;28;20032;-70
2024/01/08 06:16:47;;;;;;;0.30;0.25;;;3.30;98.90;;;;;;5036678;28;20148;-71
2024/01/08 06:19:13;;;;;;;0.20;0.20;;;3.30;98.50;;;;;;5018717;28;20037;-70
2024/01/08 06:21:38;;;;;;;0.10;0.10;;;3.30;98.40;;;;;;5045720;28;20819;-71
2024/01/08 06:24:04;;;;;;;0.63;0.55;;;3.30;98.50;;;;;;5036741;28;21041;-70
2024/01/08 06:26:31;;;;;;;0.10;0.10;;;3.30;98.40;;;;;;5042963;28;20651;-70
2024/01/08 06:28:56;;;;;;;0.28;0.28;;;3.30;98.20;;;;;;5042912;28;20025;-70
2024/01/08 06:31:22;;;;;;;0.30;0.30;;;3.40;98.20;;;;;;5043917;28;20579;-69
2024/01/08 06:33:48;;;;;;;0.17;0.17;;;3.30;98.20;;;;;;5051863;28;20489;-70
2024/01/08 06:36:13;;;;;;;0.65;0.45;;;3.40;98.00;;;;;;5042533;28;20861;-69
2024/01/08 06:38:39;;;;;;;0.10;0.10;;;3.40;98.40;;;;;;5044375;28;20032;-70
2024/01/08 06:41:05;;;;;;;0.13;0.13;;;3.30;98.20;;;;;;5040511;28;20036;-70
2024/01/08 06:43:31;;;;;;;0.10;0.10;;;3.30;98.10;;;;;;5036347;28;20032;-70
2024/01/08 06:45:56;;;;;;;0.00;0.00;;;3.30;98.10;;;;;;5041743;28;20401;-71
2024/01/08 06:48:22;;;;;;;0.38;0.30;;;3.30;98.10;;;;;;5042762;28;20025;-70
2024/01/08 06:50:48;;;;;;;0.20;0.20;;;3.30;98.50;;;;;;5038262;28;21499;-69
2024/01/08 06:53:13;;;;;;;0.30;0.30;;;3.30;98.10;;;;;;5042948;28;20120;-69
2024/01/08 06:55:39;;;;;;;0.43;0.30;;;3.30;98.00;;;;;;5041123;28;20056;-70
2024/01/08 06:58:04;;;;;;;0.30;0.30;;;3.30;98.30;;;;;;5037513;28;20385;-70
2024/01/08 07:00:30;;;;;;;0.70;0.38;;;3.30;98.10;;;;;;5041508;28;20122;-71
2024/01/08 07:02:56;;;;;;;0.10;0.10;;;3.30;98.10;;;;;;5032267;28;20495;-71
2024/01/08 07:05:21;;;;;;;0.20;0.20;;;3.30;98.10;;;;;;5036826;28;20477;-71
2024/01/08 07:07:47;;;;;;;0.10;0.10;;;3.40;97.80;;;;;;5042501;28;20024;-71
2024/01/08 07:10:12;;;;;;;0.10;0.10;;;3.40;97.50;;;;;;5028749;28;20500;-71
2024/01/08 07:12:38;;;;;;;0.00;0.00;;;3.40;97.30;;;;;;5037248;28;20044;-70
2024/01/08 07:15:04;;;;;;;1.05;0.22;;;3.50;97.30;;;;;;5037563;28;20056;-70
2024/01/08 07:17:30;;;;;;;0.00;0.00;;;3.50;97.30;;;;;;5037510;28;20026;-71
2024/01/08 07:19:56;;;;;;;0.10;0.10;;;3.50;97.00;;;;;;5042151;28;20040;-71
2024/01/08 07:22:22;;;;;;;0.73;0.35;;;3.50;96.90;;;;;;5040719;28;20041;-71
2024/01/08 07:24:48;;;;;;;0.00;0.00;;;3.50;97.00;;;;;;5034534;28;20033;-71
2024/01/08 07:27:13;;;;;;;0.10;0.10;;;3.50;97.30;;;;;;5042235;28;20039;-70
2024/01/08 07:29:39;;;;;;;0.10;0.10;;;3.50;97.40;;;;;;5020683;28;20048;-71
2024/01/08 07:32:05;;;;;;;7.10;0.20;;;3.50;97.40;;;;;;5035425;28;20117;-71
2024/01/08 07:34:30;;;;;;;0.52;0.35;;;3.50;97.40;;;;;;5038268;28;20583;-69
2024/01/08 07:36:56;;;;;;;2.60;0.25;;;3.50;97.20;;;;;;5032031;28;20051;-70
2024/01/08 07:39:22;;;;;;;0.20;0.20;;;3.60;96.90;;;;;;5038964;28;20083;-70
2024/01/08 07:41:49;;;;;;;0.13;0.13;;;3.50;96.70;;;;;;5037672;28;20033;-72
2024/01/08 07:44:15;;;;;;;0.65;0.65;;;3.50;96.70;;;;;;5030481;28;20033;-70
2024/01/08 07:46:42;;;;;;;0.10;0.10;;;3.50;97.00;;;;;;5039031;28;20071;-70
2024/01/08 07:49:10;;;;;;;0.10;0.10;;;3.50;96.80;;;;;;5039831;28;20037;-69
2024/01/08 07:51:36;;;;;;;0.10;0.10;;;3.50;96.80;;;;;;5034225;28;20871;-69
2024/01/08 07:54:02;;;;;;;0.32;0.32;;;3.50;97.10;;;;;;5027007;28;20044;-69
2024/01/08 07:56:27;;;;;;;3.00;0.70;;;3.50;97.00;;;;;;5034599;28;20044;-69
2024/01/08 07:58:53;;;;;;;0.50;0.20;;;3.50;96.80;;;;;;5031749;28;20159;-70
2024/01/08 08:01:19;;;;;;;0.75;0.75;;;3.50;96.70;;;;;;5036121;28;20397;-69
2024/01/08 08:03:44;;;;;;;0.20;0.20;;;3.50;96.90;;;;;;5031218;28;20037;-69
2024/01/08 08:06:10;;;;;;;3.42;0.65;;;3.50;97.00;;;;;;5031974;28;20033;-71
2024/01/08 08:08:36;;;;;;;0.10;0.10;;;3.50;97.30;;;;;;5033645;28;20116;-70
2024/01/08 08:11:03;;;;;;;5.97;0.65;;;3.50;97.10;;;;;;5032742;28;20029;-71
2024/01/08 08:13:30;;;;;;;0.40;0.40;;;3.50;97.10;;;;;;5038618;28;20137;-70
2024/01/08 08:15:56;;;;;;;0.63;0.30;;;3.50;97.40;;;;;;5034551;28;20033;-69
2024/01/08 08:18:22;;;;;;;1.13;0.28;;;3.50;97.70;;;;;;5032079;28;20037;-69
2024/01/08 08:20:48;;;;;;;0.38;0.38;;;3.50;97.70;;;;;;5034544;28;20048;-70
2024/01/08 08:23:13;;;;;;;3.10;0.95;;;3.50;97.50;;;;;;5034310;28;20533;-69
2024/01/08 08:25:40;;;;;;;5.60;0.75;;;3.50;97.50;;;;;;5031516;28;20468;-69
2024/01/08 08:28:06;;;;;;;0.00;0.00;;;3.50;97.30;;;;;;5035162;28;20029;-68
2024/01/08 08:30:32;;;;;;;0.32;0.32;;;3.60;97.20;;;;;;5032078;28;20113;-71
2024/01/08 08:32:58;;;;;;;0.38;0.38;;;3.60;97.10;;;;;;5033861;28;20025;-70
2024/01/08 08:35:25;;;;;;;1.17;0.52;;;3.60;97.30;;;;;;5031690;28;20035;-69
2024/01/08 08:37:52;;;;;;;0.50;0.50;;;3.60;97.40;;;;;;5029147;28;20094;-72
2024/01/08 08:40:17;;;;;;;0.75;0.75;;;3.60;97.10;;;;;;5033708;28;20032;-69
2024/01/08 08:42:43;;;;;;;0.95;0.30;;;3.60;97.10;;;;;;5033337;28;20055;-71
2024/01/08 08:45:09;;;;;;;0.08;0.08;;;3.60;97.00;;;;;;5020295;28;20122;-72
2024/01/08 08:47:35;;;;;;;3.25;0.22;;;3.60;97.10;;;;;;5029242;28;20037;-70
2024/01/08 08:50:00;;;;;;;1.65;0.28;;;3.60;96.90;;;;;;5047499;28;20025;-71
2024/01/08 08:52:26;;;;;;;0.40;0.20;;;3.70;96.90;;;;;;5048195;28;20028;-71
2024/01/08 08:54:52;;;;;;;0.38;0.22;;;3.70;96.90;;;;;;5029535;28;20036;-71
2024/01/08 08:57:17;;;;;;;0.77;0.05;;;3.70;97.00;;;;;;5029780;28;20730;-72
2024/01/08 08:59:43;;;;;;;0.10;0.10;;;3.70;97.10;;;;;;5032108;28;20638;-72
2024/01/08 09:02:09;;;;;;;0.20;0.10;;;3.70;97.50;;;;;;5033989;28;20051;-73
2024/01/08 09:04:35;;;;;;;11.90;0.65;;;3.70;97.50;;;;;;5026191;28;20033;-71
2024/01/08 09:07:00;;;;;;;0.25;0.25;;;3.80;97.40;;;;;;5033409;28;20089;-72
2024/01/08 09:09:26;;;;;;;0.10;0.10;;;3.70;97.40;;;;;;5033013;28;20033;-71
2024/01/08 09:11:52;;;;;;;0.20;0.20;;;3.70;97.60;;;;;;5034203;28;20085;-70
2024/01/08 09:14:18;;;;;;;4.93;0.75;;;3.80;97.70;;;;;;5036272;28;20048;-73
2024/01/08 09:16:49;;;;;;;0.20;0.20;;;3.80;97.90;;;;;;5030016;28;20035;-72
2024/01/08 09:19:15;;;;;;;0.20;0.20;;;3.80;98.00;;;;;;5031819;28;20120;-72
2024/01/08 09:21:45;;;;;;;0.40;0.40;;;3.80;97.80;;;;;;5028690;28;20033;-71
2024/01/08 09:24:11;;;;;;;4.30;0.47;;;3.70;98.10;;;;;;5025128;28;20075;-69
2024/01/08 09:26:36;;;;;;;0.20;0.20;;;3.70;98.10;;;;;;5026542;28;20132;-72
2024/01/08 09:29:02;;;;;;;0.45;0.25;;;3.80;98.30;;;;;;5023992;28;20037;-72
2024/01/08 09:31:28;;;;;;;0.10;0.10;;;3.70;98.50;;;;;;5020417;28;20123;-70
2024/01/08 09:33:54;;;;;;;2.05;1.75;;;3.80;98.60;;;;;;5027990;28;20389;-72
2024/01/08 09:36:19;;;;;;;1.70;0.32;;;3.70;98.90;;;;;;5034337;28;20036;-71
2024/01/08 09:38:46;;;;;;;0.47;0.20;;;3.70;98.90;;;;;;5036411;28;20032;-72
2024/01/08 09:41:13;;;;;;;2.72;0.82;;;3.70;98.80;;;;;;5037118;28;20043;-74
2024/01/08 09:43:39;;;;;;;3.83;0.40;;;3.70;99.10;;;;;;5035064;28;20765;-72
2024/01/08 09:46:11;;;;;;;2.13;0.43;;;;;;;;;;5034235;28;20037;-74
2024/01/08 09:48:37;;;;;;;1.17;0.57;;;3.80;99.90;;;;;;5033282;28;20036;-75
2024/01/08 09:51:03;;;;;;;0.22;0.22;;;3.70;99.50;;;;;;5032674;28;20029;-73
2024/01/08 09:53:32;;;;;;;0.60;0.60;;;3.80;99.80;;;;;;5033114;28;20043;-74
2024/01/08 09:56:02;;;;;;;1.60;1.00;;;;;;;;;;5037135;28;20041;-73
2024/01/08 09:58:28;;;;;;;3.55;0.45;;;3.80;99.50;;;;;;5041954;28;20068;-71
2024/01/08 10:00:54;;;;;;;8.63;0.47;;;3.70;99.90;;;;;;5027014;28;20295;-72
2024/01/08 10:03:59;;;;;;;7.47;0.55;;;3.60;99.90;;;;;;5029235;28;20171;-73
2024/01/08 10:06:24;;;;;;;0.10;0.10;;;3.20;99.90;;;;;;5032525;28;20086;-75
2024/01/08 10:08:51;;;;;;;0.03;0.03;;;2.70;99.90;;;;;;5035668;28;20057;-73
2024/01/08 10:11:16;;;;;;;0.43;0.43;;;2.50;99.90;;;;;;5031136;28;20029;-72
2024/01/08 10:13:42;;;;;;;0.57;0.52;;;2.40;99.90;;;;;;5035119;28;20064;-75
2024/01/08 10:16:08;;;;;;;1.00;1.00;;;2.30;99.90;;;;;;5035230;28;20142;-76
2024/01/08 10:18:34;;;;;;;0.17;0.17;;;2.30;99.90;;;;;;5033815;28;20040;-75
2024/01/08 10:21:15;;;;;;;1.60;1.50;;;2.30;99.90;;;;;;5032672;28;20103;-74
2024/01/08 10:23:41;;;;;;;0.28;0.28;;;2.30;99.90;;;;;;5028404;28;20052;-75
2024/01/08 10:26:12;;;;;;;1.73;1.17;;;2.30;99.90;;;;;;5035688;28;20040;-73
2024/01/08 10:28:38;;;;;;;0.50;0.32;;;2.30;99.90;;;;;;5025052;28;20893;-71
2024/01/08 10:31:05;;;;;;;1.20;0.65;;;2.30;99.90;;;;;;5024360;28;20489;-72
2024/01/08 10:33:31;;;;;;;2.42;0.85;;;2.30;99.90;;;;;;5033264;28;20116;-71
2024/01/08 10:35:59;;;;;;;0.82;0.43;;;2.30;99.90;;;;;;5035311;28;20056;-72
2024/01/08 10:38:26;;;;;;;0.63;0.55;;;2.30;99.90;;;;;;5031310;28;20036;-72
2024/01/08 10:40:54;;;;;;;0.32;0.32;;;2.30;99.90;;;;;;5036111;28;20095;-72
2024/01/08 10:43:19;;;;;;;1.15;0.47;;;2.30;99.90;;;;;;5031224;28;20033;-71
2024/01/08 10:45:47;;;;;;;0.77;0.30;;;2.20;99.90;;;;;;5025531;28;20370;-71
2024/01/08 10:48:38;;;;;;;0.47;0.47;;;2.20;99.90;;;;;;5032391;28;20037;-72
2024/01/08 10:51:06;;;;;;;1.23;0.73;;;2.20;99.90;;;;;;5034003;28;20101;-72
2024/01/08 10:53:42;;;;;;;0.43;0.22;;;2.20;99.90;;;;;;5035559;28;20123;-70
2024/01/08 10:56:15;;;;;;;0.93;0.30;;;2.20;99.90;;;;;;5037355;28;20061;-73
2024/01/08 10:58:50;;;;;;;0.95;0.95;;;2.30;99.90;;;;;;5030488;28;20047;-71
2024/01/08 11:01:17;;;;;;;0.38;0.25;;;2.30;99.90;;;;;;5030542;28;20506;-71
2024/01/08 11:03:46;;;;;;;1.02;0.20;;;2.20;99.90;;;;;;5028947;28;20055;-72
2024/01/08 11:06:12;;;;;;;0.50;0.40;;;2.20;99.90;;;;;;5028472;28;20029;-72
2024/01/08 11:08:39;;;;;;;1.33;0.60;;;2.30;99.90;;;;;;5030801;28;20734;-69
2024/01/08 11:11:08;;;;;;;0.40;0.40;;;2.30;99.90;;;;;;5024973;28;20061;-73
2024/01/08 11:13:34;;;;;;;2.47;0.77;;;2.30;99.90;;;;;;5029962;28;20032;-72
2024/01/08 11:16:04;;;;;;;1.83;0.75;;;2.30;99.90;;;;;;5031422;28;20040;-72
2024/01/08 11:18:30;;;;;;;2.60;0.80;;;2.30;99.90;;;;;;5028106;28;20036;-72
2024/01/08 11:20:57;;;;;;;0.70;0.40;;;2.20;99.90;;;;;;5032450;28;20041;-71
2024/01/08 11:23:40;;;;;;;0.88;0.55;;;2.10;99.90;;;;;;5029607;28;20079;-71
2024/01/08 11:26:25;;;;;;;2.42;0.70;;;2.00;99.90;;;;;;5026845;28;20029;-73
2024/01/08 11:29:09;;;;;;;1.10;0.75;;;1.90;99.90;;;;;;5032252;28;20043;-71
2024/01/08 11:32:11;;;;;;;5.90;1.20;;;1.70;99.90;;;;;;5024327;28;20158;-71
2024/01/08 11:35:03;;;;;;;1.02;0.90;;;1.60;99.90;;;;;;5029100;28;20040;-71
2024/01/08 11:37:37;;;;;;;3.35;1.73;;;1.50;99.90;;;;;;5021061;28;20037;-74
2024/01/08 11:40:05;;;;;;;1.77;1.38;;;1.50;99.90;;;;;;5023764;28;20036;-71
2024/01/08 11:42:32;;;;;;;1.65;0.63;;;1.40;99.90;;;;;;5027953;28;22641;-74
2024/01/08 11:44:59;;;;;;;0.80;0.80;;;1.40;99.90;;;;;;5022765;28;20033;-73
2024/01/08 11:47:25;;;;;;;0.93;0.73;;;1.50;99.90;;;;;;5025465;28;20132;-72
2024/01/08 11:49:51;;;;;;;1.15;0.73;;;1.50;99.90;;;;;;5029049;28;20028;-72
2024/01/08 11:52:18;;;;;;;0.38;0.38;;;1.50;99.90;;;;;;5022759;28;20033;-71
2024/01/08 11:54:48;;;;;;;0.95;0.65;;;1.50;99.90;;;;;;5024999;28;20052;-74
2024/01/08 11:57:15;;;;;;;0.70;0.70;;;1.50;99.90;;;;;;5024432;28;20064;-71
2024/01/08 11:59:41;;;;;;;0.77;0.77;;;1.50;99.90;;;;;;5018957;28;20098;-72
2024/01/08 12:02:16;;;;;;;0.70;0.70;;;1.60;99.90;;;;;;5025544;28;21575;-70
2024/01/08 12:04:43;;;;;;;0.47;0.30;;;1.70;99.90;;;;;;5029075;28;20033;-72
2024/01/08 12:07:11;;;;;;;0.47;0.45;;;1.80;99.90;;;;;;5034452;28;20108;-73
2024/01/08 12:09:36;;;;;;;1.45;1.10;;;1.80;99.90;;;;;;5030145;28;20035;-70
2024/01/08 12:12:05;;;;;;;5.93;1.55;;;1.80;99.90;;;;;;5024455;28;20052;-70
2024/01/08 12:14:32;;;;;;;3.83;0.98;;;1.80;99.90;;;;;;5034729;28;20037;-73
2024/01/08 12:16:58;;;;;;;0.55;0.55;;;1.80;99.90;;;;;;5035529;28;20082;-71
2024/01/08 12:19:35;;;;;;;1.48;0.98;;;1.90;99.90;;;;;;5033576;28;20037;-72
2024/01/08 12:22:00;;;;;;;1.33;1.25;;;2.00;99.90;;;;;;5039121;28;20057;-72
2024/01/08 12:24:26;;;;;;;2.13;1.35;;;2.20;99.90;;;;;;5034997;28;20017;-72
2024/01/08 12:26:52;;;;;;;0.40;0.38;;;2.20;99.90;;;;;;5059715;28;20033;-72
2024/01/08 12:29:18;;;;;;;0.88;0.60;;;2.10;99.90;;;;;;5036623;28;20033;-72
2024/01/08 12:31:44;;;;;;;5.38;1.92;;;2.20;99.90;;;;;;5027074;28;20115;-74
2024/01/08 12:34:10;;;;;;;0.93;0.90;;;2.20;99.90;;;;;;5029290;28;20093;-72
2024/01/08 12:36:35;;;;;;;4.00;0.90;;;2.20;99.90;;;;;;5030765;28;20717;-70
2024/01/08 12:39:02;;;;;;;1.83;1.10;;;2.10;99.90;;;;;;5024122;28;20041;-73
2024/01/08 12:41:28;;;;;;;2.67;1.55;;;2.30;99.90;;;;;;5027090;28;20041;-72
2024/01/08 12:43:57;;;;;;;3.50;0.43;;;;;;;;;;5027123;28;20094;-72
2024/01/08 12:46:22;;;;;;;0.68;0.68;;;2.20;99.90;;;;;;5025748;28;20401;-72
2024/01/08 12:48:48;;;;;;;0.55;0.50;;;2.20;99.90;;;;;;5030803;28;20041;-72
2024/01/08 12:51:13;;;;;;;0.55;0.52;;;2.30;99.90;;;;;;5027549;28;20037;-73
2024/01/08 12:53:40;;;;;;;0.52;0.52;;;2.30;99.90;;;;;;5031025;28;20121;-74
2024/01/08 12:56:06;;;;;;;0.80;0.75;;;2.30;99.90;;;;;;5031672;28;20674;-74